createdAt,value
2023-01-05T00:02:08.336Z,14.23
2023-01-05T00:10:34.850Z,14.35
2023-01-05T00:18:55.137Z,14.63
2023-01-05T00:27:00.625Z,12.95
2023-01-05T00:35:09.525Z,15.32
2023-01-05T00:43:14.911Z,11.82
2023-01-05T00:51:22.958Z,14.07
2023-01-05T00:59:28.314Z,13.90
2023-01-05T01:07:36.716Z,15.35
2023-01-05T01:15:43.538Z,14.68
2023-01-05T01:23:52.083Z,14.32
2023-01-05T01:31:59.888Z,13.57
2023-01-05T01:40:08.701Z,11.75
2023-01-05T01:48:17.834Z,10.88
2023-01-05T01:56:30.116Z,11.23
2023-01-05T02:04:36.578Z,10.70
2023-01-05T02:13:00.600Z,10.95
2023-01-05T02:21:18.697Z,12.05
2023-01-05T02:29:54.756Z,12.20
2023-01-05T02:38:09.113Z,14.25
2023-01-05T02:46:16.263Z,13.82
2023-01-05T02:54:30.836Z,14.30
2023-01-05T03:02:37.682Z,15.02
2023-01-05T03:11:07.969Z,12.60
2023-01-05T03:19:28.358Z,12.27
2023-01-05T03:27:49.836Z,11.55
2023-01-05T03:36:00.373Z,13.98
2023-01-05T03:44:10.220Z,11.50
2023-01-05T03:52:18.010Z,12.05
2023-01-05T04:00:26.769Z,13.35
2023-01-05T04:08:39.930Z,17.48
2023-01-05T04:16:51.040Z,16.83
2023-01-05T04:25:00.685Z,16.80
2023-01-05T04:33:10.738Z,15.18
2023-01-05T04:41:17.094Z,15.45
2023-01-05T04:49:29.129Z,12.68
2023-01-05T04:57:35.114Z,12.90
2023-01-05T05:05:43.244Z,13.80
2023-01-05T05:13:51.507Z,10.77
2023-01-05T05:21:59.618Z,7.93
2023-01-05T05:30:06.914Z,7.50
2023-01-05T05:38:14.955Z,9.35
2023-01-05T05:46:20.348Z,9.88
2023-01-05T05:54:29.119Z,9.43
2023-01-05T06:02:34.559Z,8.70
2023-01-05T06:10:42.563Z,8.63
2023-01-05T06:19:03.261Z,8.77
2023-01-05T06:27:12.466Z,15.02
2023-01-05T06:35:21.096Z,9.82
2023-01-05T06:43:29.246Z,9.95
2023-01-05T06:51:34.555Z,12.18
2023-01-05T06:59:42.962Z,10.43
2023-01-05T07:07:49.345Z,11.65
2023-01-05T07:15:57.416Z,11.82
2023-01-05T07:24:03.345Z,10.73
2023-01-05T07:32:11.473Z,10.50
2023-01-05T07:40:16.883Z,11.07
2023-01-05T07:48:24.972Z,12.27
2023-01-05T07:56:30.509Z,10.85
2023-01-05T08:04:39.090Z,14.40
2023-01-05T08:12:57.224Z,14.07
2023-01-05T08:21:08.791Z,16.17
2023-01-05T08:29:14.279Z,15.32
2023-01-05T08:37:22.488Z,11.38
2023-01-05T08:45:27.992Z,13.93
2023-01-05T08:53:36.581Z,15.05
2023-01-05T09:01:42.411Z,11.93
2023-01-05T09:09:51.117Z,10.80
2023-01-05T09:17:57.746Z,11.13
2023-01-05T09:26:08.752Z,10.32
2023-01-05T09:34:14.585Z,10.63
2023-01-05T09:42:36.572Z,12.90
2023-01-05T09:50:41.999Z,11.75
2023-01-05T09:58:52.025Z,12.02
2023-01-05T10:07:04.591Z,13.73
2023-01-05T10:15:19.756Z,13.93
2023-01-05T10:23:40.783Z,13.27
2023-01-05T10:32:04.741Z,10.95
2023-01-05T10:40:24.604Z,12.40
2023-01-05T10:48:38.717Z,13.38
2023-01-05T10:56:44.150Z,13.18
2023-01-05T11:04:54.886Z,8.75
2023-01-05T11:13:06.578Z,7.75
2023-01-05T11:21:17.694Z,7.57
2023-01-05T11:29:34.963Z,7.68
2023-01-05T11:38:33.372Z,6.60
2023-01-05T11:46:57.407Z,7.97
2023-01-05T11:55:30.780Z,8.90
2023-01-05T12:04:02.215Z,12.27
2023-01-05T12:12:42.455Z,8.73
2023-01-05T12:21:03.790Z,7.88
2023-01-05T12:31:16.999Z,7.95
2023-01-05T12:38:25.972Z,8.32
2023-01-05T12:46:47.507Z,6.72
2023-01-05T12:54:58.490Z,5.15
2023-01-05T13:03:11.519Z,5.13
2023-01-05T13:11:22.821Z,5.77
2023-01-05T13:19:35.255Z,3.40
2023-01-05T13:27:42.885Z,3.85
2023-01-05T13:36:03.161Z,4.30
2023-01-05T13:44:37.828Z,4.40
2023-01-05T13:53:02.413Z,4.15
2023-01-05T14:01:11.316Z,5.22
2023-01-05T14:09:23.975Z,4.35
2023-01-05T14:17:53.812Z,5.03
2023-01-05T14:26:02.721Z,8.20
2023-01-05T14:34:15.831Z,5.43
2023-01-05T14:42:33.454Z,4.53
2023-01-05T14:50:47.690Z,4.60
2023-01-05T14:59:01.503Z,6.82
2023-01-05T15:07:20.720Z,7.25
2023-01-05T15:15:44.054Z,6.28
2023-01-05T15:24:11.883Z,6.20
2023-01-05T15:32:27.206Z,7.63
2023-01-05T15:40:35.254Z,7.32
2023-01-05T15:48:46.226Z,7.80
2023-01-05T15:56:54.549Z,8.55
2023-01-05T16:05:18.443Z,8.90
2023-01-05T16:22:04.171Z,7.90
2023-01-05T16:30:30.918Z,8.07
2023-01-05T16:38:39.272Z,7.30
2023-01-05T16:46:46.122Z,6.60
2023-01-05T16:55:27.548Z,5.88
2023-01-05T17:03:35.133Z,5.00
2023-01-05T17:11:43.302Z,5.78
2023-01-05T17:19:51.628Z,3.90
2023-01-05T17:27:59.568Z,3.28
2023-01-05T17:36:07.295Z,3.35
2023-01-05T17:44:15.892Z,3.22
2023-01-05T17:52:22.652Z,3.20
2023-01-05T18:00:35.115Z,2.80
2023-01-05T18:17:09.247Z,4.22
2023-01-05T18:25:15.447Z,3.65
2023-01-05T18:33:24.267Z,3.45
2023-01-05T18:41:29.976Z,3.95
2023-01-05T18:49:38.735Z,4.20
2023-01-05T18:57:44.411Z,4.93
2023-01-05T19:05:56.623Z,5.47
2023-01-05T19:14:04.612Z,5.60
2023-01-05T19:22:13.274Z,6.53
2023-01-05T19:30:20.635Z,8.40
2023-01-05T19:38:29.002Z,6.78
2023-01-05T19:46:35.725Z,6.45
2023-01-05T19:54:45.401Z,5.70
2023-01-05T20:02:58.276Z,5.43
2023-01-05T20:11:12.115Z,5.80
2023-01-05T20:19:19.345Z,6.32
2023-01-05T20:27:27.952Z,10.20
2023-01-05T20:35:33.534Z,6.47
2023-01-05T20:43:41.563Z,5.88
2023-01-05T20:51:47.221Z,6.15
2023-01-05T20:59:55.296Z,5.85
2023-01-05T21:08:01.060Z,6.45
2023-01-05T21:16:09.505Z,6.30
2023-01-05T21:24:16.144Z,6.13
2023-01-05T21:32:24.166Z,6.63
2023-01-05T21:40:30.663Z,5.60
2023-01-05T21:48:39.033Z,5.43
2023-01-05T21:56:45.777Z,6.53
2023-01-05T22:04:53.819Z,5.85
2023-01-05T22:13:06.293Z,6.50
2023-01-05T22:21:15.057Z,5.65
2023-01-05T22:29:20.499Z,6.60
2023-01-05T22:37:28.433Z,6.15
2023-01-05T22:45:35.552Z,5.78
2023-01-05T22:53:46.113Z,4.53
2023-01-05T23:01:51.547Z,3.95
2023-01-05T23:09:59.479Z,4.10
2023-01-05T23:18:04.889Z,4.30
2023-01-05T23:26:14.997Z,3.72
2023-01-05T23:34:20.430Z,4.13
2023-01-05T23:42:45.324Z,4.50
2023-01-05T23:50:51.384Z,4.25
2023-01-05T23:59:07.411Z,4.38
